createdAt,value
2022-10-22T00:01:42.826Z,14.10
2022-10-22T00:04:09.414Z,14.00
2022-10-22T00:06:36.079Z,14.20
2022-10-22T00:09:03.805Z,14.00
2022-10-22T00:11:30.819Z,14.00
2022-10-22T00:13:57.886Z,14.20
2022-10-22T00:16:24.568Z,14.00
2022-10-22T00:18:51.320Z,13.90
2022-10-22T00:21:17.849Z,13.70
2022-10-22T00:23:44.489Z,13.70
2022-10-22T00:26:11.961Z,14.00
2022-10-22T00:28:39.066Z,13.70
2022-10-22T00:31:06.121Z,14.10
2022-10-22T00:33:32.825Z,14.20
2022-10-22T00:35:59.484Z,13.90
2022-10-22T00:38:26.131Z,13.90
2022-10-22T00:40:52.807Z,14.10
2022-10-22T00:43:20.800Z,13.90
2022-10-22T00:45:47.803Z,13.90
2022-10-22T00:48:18.367Z,13.90
2022-10-22T00:50:48.843Z,13.90
2022-10-22T00:53:18.571Z,14.00
2022-10-22T00:55:48.898Z,13.90
2022-10-22T00:58:16.244Z,13.90
2022-10-22T01:00:43.716Z,13.80
2022-10-22T01:03:11.682Z,13.80
2022-10-22T01:05:52.283Z,13.90
2022-10-22T01:08:25.766Z,13.90
2022-10-22T01:11:03.174Z,13.70
2022-10-22T01:13:39.192Z,14.10
2022-10-22T01:16:11.478Z,14.00
2022-10-22T01:18:45.734Z,13.90
2022-10-22T01:21:23.097Z,13.90
2022-10-22T01:24:15.165Z,14.00
2022-10-22T01:26:54.960Z,14.00
2022-10-22T01:29:29.011Z,14.00
2022-10-22T01:32:00.136Z,14.00
2022-10-22T01:34:28.853Z,14.00
2022-10-22T01:36:57.384Z,14.00
2022-10-22T01:39:26.780Z,14.00
2022-10-22T01:41:55.210Z,13.80
2022-10-22T01:44:30.278Z,13.90
2022-10-22T01:47:07.593Z,14.00
2022-10-22T01:49:48.928Z,14.00
2022-10-22T01:52:27.036Z,14.00
2022-10-22T01:55:01.036Z,13.80
2022-10-22T01:57:34.992Z,13.90
2022-10-22T02:00:06.775Z,13.80
2022-10-22T02:02:39.616Z,14.00
2022-10-22T02:05:10.580Z,13.90
2022-10-22T02:07:43.245Z,13.90
2022-10-22T02:10:11.614Z,13.90
2022-10-22T02:12:39.912Z,13.90
2022-10-22T02:15:09.682Z,13.90
2022-10-22T02:17:41.332Z,13.90
2022-10-22T02:20:12.716Z,13.80
2022-10-22T02:22:39.870Z,13.80
2022-10-22T02:25:07.676Z,13.80
2022-10-22T02:27:41.492Z,14.10
2022-10-22T02:30:12.320Z,13.90
2022-10-22T02:32:43.054Z,13.90
2022-10-22T02:35:13.324Z,13.90
2022-10-22T02:37:40.871Z,13.90
2022-10-22T02:40:08.778Z,13.50
2022-10-22T02:42:37.696Z,13.80
2022-10-22T02:45:05.586Z,13.60
2022-10-22T02:47:33.086Z,13.80
2022-10-22T02:49:59.719Z,13.80
2022-10-22T02:52:26.351Z,13.80
2022-10-22T02:54:53.203Z,13.80
2022-10-22T02:59:51.327Z,13.70
2022-10-22T03:02:17.885Z,13.90
2022-10-22T03:04:45.154Z,13.90
2022-10-22T03:07:11.762Z,13.60
2022-10-22T03:09:38.371Z,13.80
2022-10-22T03:12:05.502Z,13.80
2022-10-22T03:14:32.733Z,13.90
2022-10-22T03:16:59.361Z,13.70
2022-10-22T03:19:26.093Z,13.70
2022-10-22T03:21:58.973Z,13.70
2022-10-22T03:24:29.712Z,13.70
2022-10-22T03:26:58.436Z,13.80
2022-10-22T03:29:26.476Z,13.70
2022-10-22T03:31:53.576Z,13.80
2022-10-22T03:34:20.726Z,11.30
2022-10-22T03:36:48.271Z,13.80
2022-10-22T03:39:17.511Z,13.70
2022-10-22T03:41:44.547Z,14.00
2022-10-22T03:44:11.876Z,13.80
2022-10-22T03:46:40.978Z,13.70
2022-10-22T03:49:07.516Z,13.70
2022-10-22T03:51:35.124Z,13.60
2022-10-22T03:54:01.942Z,13.80
2022-10-22T03:56:29.619Z,13.60
2022-10-22T03:58:57.301Z,13.60
2022-10-22T04:01:24.379Z,13.40
2022-10-22T04:03:51.138Z,13.60
2022-10-22T04:06:17.719Z,13.60
2022-10-22T04:08:45.556Z,13.60
2022-10-22T04:11:13.485Z,13.60
2022-10-22T04:13:40.963Z,13.50
2022-10-22T04:16:08.934Z,13.50
2022-10-22T04:18:35.926Z,13.30
2022-10-22T04:21:03.986Z,13.60
2022-10-22T04:23:31.717Z,13.50
2022-10-22T04:25:58.814Z,13.60
2022-10-22T04:28:25.779Z,13.50
2022-10-22T04:30:53.073Z,13.70
2022-10-22T04:33:19.741Z,13.50
2022-10-22T04:35:46.432Z,13.50
2022-10-22T04:38:13.387Z,13.60
2022-10-22T04:40:40.048Z,13.60
2022-10-22T04:43:06.692Z,13.60
2022-10-22T04:45:34.124Z,13.60
2022-10-22T04:48:01.432Z,13.40
2022-10-22T04:50:28.319Z,13.60
2022-10-22T04:52:55.080Z,13.50
2022-10-22T04:55:21.798Z,13.60
2022-10-22T04:57:48.366Z,13.60
2022-10-22T05:00:15.892Z,13.60
2022-10-22T05:02:44.026Z,13.50
2022-10-22T05:05:11.584Z,13.60
2022-10-22T05:07:38.498Z,13.60
2022-10-22T05:10:05.953Z,13.40
2022-10-22T05:12:32.645Z,13.50
2022-10-22T05:14:59.246Z,13.50
2022-10-22T05:17:25.869Z,13.50
2022-10-22T05:19:52.426Z,13.50
2022-10-22T05:22:19.849Z,13.40
2022-10-22T05:24:48.339Z,13.50
2022-10-22T05:27:14.956Z,13.40
2022-10-22T05:29:41.660Z,13.40
2022-10-22T05:32:08.250Z,13.40
2022-10-22T05:34:35.710Z,13.30
2022-10-22T05:37:02.279Z,13.40
2022-10-22T05:39:29.620Z,13.40
2022-10-22T05:41:56.222Z,13.30
2022-10-22T05:44:22.823Z,13.20
2022-10-22T05:46:49.341Z,13.20
2022-10-22T05:49:15.935Z,13.50
2022-10-22T05:51:42.838Z,13.20
2022-10-22T05:54:16.904Z,13.20
2022-10-22T05:56:44.173Z,13.20
2022-10-22T05:59:11.353Z,13.20
2022-10-22T06:01:40.041Z,13.40
2022-10-22T06:04:09.742Z,13.20
2022-10-22T06:06:39.044Z,13.20
2022-10-22T06:09:10.752Z,13.20
2022-10-22T06:11:37.359Z,13.30
2022-10-22T06:14:04.914Z,13.40
2022-10-22T06:16:32.090Z,14.60
2022-10-22T06:18:59.809Z,13.20
2022-10-22T06:21:26.463Z,13.20
2022-10-22T06:23:55.911Z,13.20
2022-10-22T06:26:22.541Z,13.20
2022-10-22T06:28:49.310Z,13.20
2022-10-22T06:31:16.666Z,13.30
2022-10-22T06:33:43.274Z,13.60
2022-10-22T06:36:11.897Z,13.30
2022-10-22T06:38:39.110Z,13.30
2022-10-22T06:41:07.632Z,13.50
2022-10-22T06:43:34.286Z,13.40
2022-10-22T06:46:01.732Z,13.50
2022-10-22T06:48:29.084Z,13.60
2022-10-22T06:50:55.803Z,13.60
2022-10-22T06:53:22.453Z,13.70
2022-10-22T06:55:49.072Z,13.90
2022-10-22T06:58:15.825Z,13.70
2022-10-22T07:00:42.467Z,13.70
2022-10-22T07:03:11.691Z,13.80
2022-10-22T07:05:39.082Z,13.80
2022-10-22T07:08:05.955Z,13.80
2022-10-22T07:10:32.699Z,13.90
2022-10-22T07:12:59.401Z,14.00
2022-10-22T07:15:26.115Z,14.10
2022-10-22T07:17:52.677Z,14.10
2022-10-22T07:20:20.913Z,14.20
2022-10-22T07:22:48.247Z,14.10
2022-10-22T07:25:16.497Z,14.30
2022-10-22T07:27:46.645Z,14.30
2022-10-22T07:30:13.638Z,14.50
2022-10-22T07:32:40.320Z,14.50
2022-10-22T07:35:07.604Z,14.50
2022-10-22T07:37:34.306Z,14.70
2022-10-22T07:40:03.845Z,14.80
2022-10-22T07:42:30.910Z,15.10
2022-10-22T07:44:59.102Z,15.30
2022-10-22T07:47:25.844Z,15.50
2022-10-22T07:49:52.448Z,15.60
2022-10-22T07:52:19.053Z,15.40
2022-10-22T07:54:45.725Z,15.70
2022-10-22T07:57:13.143Z,15.90
2022-10-22T07:59:39.815Z,15.80
2022-10-22T08:02:06.683Z,15.50
2022-10-22T08:04:33.351Z,15.40
2022-10-22T08:07:00.622Z,15.10
2022-10-22T08:09:27.354Z,15.30
2022-10-22T08:11:54.139Z,15.10
2022-10-22T08:14:21.656Z,15.30
2022-10-22T08:16:48.332Z,15.00
2022-10-22T08:19:18.303Z,15.00
2022-10-22T08:21:45.274Z,15.20
2022-10-22T08:24:14.189Z,15.30
2022-10-22T08:26:41.358Z,15.30
2022-10-22T08:29:08.330Z,15.10
2022-10-22T08:31:36.244Z,15.70
2022-10-22T08:34:04.885Z,15.10
2022-10-22T08:36:31.523Z,15.10
2022-10-22T08:38:58.109Z,14.90
2022-10-22T08:41:25.778Z,14.80
2022-10-22T08:44:10.806Z,14.90
2022-10-22T08:46:51.862Z,15.00
2022-10-22T08:49:22.272Z,15.20
2022-10-22T08:51:49.076Z,15.40
2022-10-22T08:54:24.572Z,16.60
2022-10-22T08:57:06.123Z,15.90
2022-10-22T08:59:40.386Z,15.90
2022-10-22T09:02:20.091Z,15.70
2022-10-22T09:04:57.220Z,15.80
2022-10-22T09:07:24.628Z,15.90
2022-10-22T09:09:54.103Z,16.00
2022-10-22T09:12:24.239Z,16.00
2022-10-22T09:14:51.235Z,15.90
2022-10-22T09:17:25.444Z,15.90
2022-10-22T09:20:01.075Z,16.00
2022-10-22T09:22:38.163Z,16.10
2022-10-22T09:25:18.615Z,15.80
2022-10-22T09:27:45.631Z,15.90
2022-10-22T09:30:16.866Z,16.00
2022-10-22T09:32:44.314Z,16.30
2022-10-22T09:35:12.221Z,16.20
2022-10-22T09:37:47.797Z,16.30
2022-10-22T09:40:15.941Z,16.40
2022-10-22T09:42:44.928Z,16.60
2022-10-22T09:45:24.103Z,16.70
2022-10-22T09:48:10.391Z,16.70
2022-10-22T09:50:42.187Z,16.50
2022-10-22T09:53:13.831Z,16.50
2022-10-22T09:55:42.422Z,16.50
2022-10-22T09:58:12.463Z,16.60
2022-10-22T10:00:41.443Z,16.60
2022-10-22T10:03:17.621Z,16.50
2022-10-22T10:05:47.832Z,16.40
2022-10-22T10:08:16.110Z,16.60
2022-10-22T10:10:47.228Z,16.60
2022-10-22T10:13:33.771Z,16.70
2022-10-22T10:16:08.405Z,16.70
2022-10-22T10:18:50.290Z,16.80
2022-10-22T10:21:28.144Z,16.30
2022-10-22T10:24:00.628Z,15.90
2022-10-22T10:26:35.308Z,16.20
2022-10-22T10:29:13.967Z,16.00
2022-10-22T10:31:49.607Z,16.20
2022-10-22T10:34:29.121Z,16.00
2022-10-22T10:37:04.294Z,16.00
2022-10-22T10:39:40.214Z,15.90
2022-10-22T10:42:20.733Z,16.10
2022-10-22T10:45:02.302Z,16.10
2022-10-22T10:47:52.557Z,16.00
2022-10-22T10:50:26.045Z,16.00
2022-10-22T10:53:03.213Z,16.10
2022-10-22T10:55:35.633Z,16.20
2022-10-22T10:58:13.033Z,16.30
2022-10-22T11:00:47.121Z,16.20
2022-10-22T11:04:03.507Z,16.20
2022-10-22T11:06:33.828Z,16.30
2022-10-22T11:09:07.026Z,16.80
2022-10-22T11:11:39.743Z,17.20
2022-10-22T11:14:13.831Z,17.50
2022-10-22T11:16:45.401Z,17.60
2022-10-22T11:19:22.720Z,17.20
2022-10-22T11:22:04.822Z,17.20
2022-10-22T11:24:41.546Z,17.70
2022-10-22T11:27:18.775Z,17.90
2022-10-22T11:29:52.044Z,17.80
2022-10-22T11:32:20.617Z,17.80
2022-10-22T11:34:50.800Z,17.50
2022-10-22T11:37:18.553Z,17.40
2022-10-22T11:39:49.066Z,17.50
2022-10-22T11:42:20.231Z,17.90
2022-10-22T11:44:58.318Z,18.20
2022-10-22T11:47:26.521Z,18.30
2022-10-22T11:49:59.104Z,18.20
2022-10-22T11:52:38.592Z,18.00
2022-10-22T11:55:32.255Z,17.90
2022-10-22T11:58:00.402Z,17.80
2022-10-22T12:00:39.210Z,17.90
2022-10-22T12:03:16.544Z,17.70
2022-10-22T12:05:44.210Z,17.60
2022-10-22T12:08:24.695Z,17.80
2022-10-22T12:11:05.840Z,18.10
2022-10-22T12:13:50.768Z,18.30
2022-10-22T12:16:27.235Z,18.20
2022-10-22T12:19:12.717Z,17.40
2022-10-22T12:21:42.311Z,18.60
2022-10-22T12:24:13.402Z,18.60
2022-10-22T12:26:39.988Z,18.80
2022-10-22T12:29:10.915Z,19.20
2022-10-22T12:31:39.090Z,20.30
2022-10-22T12:34:06.063Z,22.00
2022-10-22T12:36:35.024Z,25.80
2022-10-22T12:39:02.573Z,28.60
2022-10-22T12:41:34.686Z,29.20
2022-10-22T12:44:03.495Z,31.50
2022-10-22T12:46:32.838Z,29.50
2022-10-22T12:49:01.840Z,30.70
2022-10-22T12:51:29.064Z,31.70
2022-10-22T12:54:06.694Z,31.40
2022-10-22T12:56:35.474Z,30.90
2022-10-22T12:59:04.626Z,31.70
2022-10-22T13:01:36.252Z,32.80
2022-10-22T13:04:16.953Z,34.20
2022-10-22T13:06:45.105Z,34.50
2022-10-22T13:09:16.414Z,33.40
2022-10-22T13:11:50.840Z,33.10
2022-10-22T13:14:22.091Z,33.20
2022-10-22T13:17:04.086Z,34.00
2022-10-22T13:19:40.898Z,32.20
2022-10-22T13:22:24.724Z,30.40
2022-10-22T13:24:51.708Z,29.10
2022-10-22T13:27:19.450Z,27.30
2022-10-22T13:29:46.658Z,29.00
2022-10-22T13:32:27.415Z,30.10
2022-10-22T13:34:54.969Z,29.10
2022-10-22T13:37:22.891Z,30.40
2022-10-22T13:39:49.809Z,32.00
2022-10-22T13:42:16.436Z,32.70
2022-10-22T13:44:43.663Z,32.40
2022-10-22T13:47:21.868Z,31.70
2022-10-22T13:49:48.783Z,31.40
2022-10-22T13:52:25.886Z,31.70
2022-10-22T13:54:52.470Z,30.60
2022-10-22T13:57:19.011Z,29.80
2022-10-22T13:59:46.475Z,26.70
2022-10-22T14:02:13.829Z,24.10
2022-10-22T14:04:41.283Z,22.20
2022-10-22T14:07:12.057Z,21.10
2022-10-22T14:09:38.659Z,20.40
2022-10-22T14:12:11.031Z,20.00
2022-10-22T14:14:37.754Z,19.80
2022-10-22T14:17:05.605Z,18.40
2022-10-22T14:19:32.389Z,19.60
2022-10-22T14:21:59.199Z,19.50
2022-10-22T14:24:26.036Z,19.60
2022-10-22T14:26:52.631Z,19.50
2022-10-22T14:29:19.364Z,19.40
2022-10-22T14:31:46.083Z,19.30
2022-10-22T14:34:15.487Z,19.30
2022-10-22T14:36:43.123Z,19.30
2022-10-22T14:39:09.778Z,20.00
2022-10-22T14:41:37.069Z,19.30
2022-10-22T14:44:04.064Z,19.60
2022-10-22T14:46:30.856Z,19.20
2022-10-22T14:48:57.406Z,19.10
2022-10-22T14:51:24.847Z,19.10
2022-10-22T14:53:51.458Z,18.60
2022-10-22T14:56:20.674Z,18.90
2022-10-22T14:58:47.394Z,18.70
2022-10-22T15:01:14.153Z,18.80
2022-10-22T15:03:40.984Z,18.80
2022-10-22T15:06:07.817Z,18.50
2022-10-22T15:08:35.144Z,18.70
2022-10-22T15:11:03.708Z,18.70
2022-10-22T15:13:30.454Z,18.60
2022-10-22T15:15:57.916Z,18.60
2022-10-22T15:18:24.764Z,18.70
2022-10-22T15:20:55.942Z,18.50
2022-10-22T15:23:22.658Z,18.50
2022-10-22T15:25:49.958Z,18.20
2022-10-22T15:28:16.666Z,18.40
2022-10-22T15:30:43.386Z,18.30
2022-10-22T15:33:10.456Z,18.30
2022-10-22T15:35:37.082Z,18.30
2022-10-22T15:38:05.869Z,18.10
2022-10-22T15:40:32.495Z,18.00
2022-10-22T15:42:59.714Z,18.00
2022-10-22T15:45:26.339Z,17.90
2022-10-22T15:47:52.922Z,17.80
2022-10-22T15:50:21.630Z,17.80
2022-10-22T15:52:49.524Z,17.80
2022-10-22T15:55:16.283Z,17.70
2022-10-22T15:57:44.435Z,17.70
2022-10-22T16:00:13.283Z,17.50
2022-10-22T16:02:40.339Z,17.50
2022-10-22T16:05:07.911Z,17.10
2022-10-22T16:07:35.973Z,17.20
2022-10-22T16:10:02.954Z,17.10
2022-10-22T16:12:29.548Z,17.00
2022-10-22T16:14:56.114Z,17.00
2022-10-22T16:17:23.742Z,16.70
2022-10-22T16:19:50.753Z,16.60
2022-10-22T16:22:17.324Z,16.50
2022-10-22T16:24:43.910Z,16.40
2022-10-22T16:27:10.625Z,16.30
2022-10-22T16:29:38.451Z,16.20
2022-10-22T16:32:05.452Z,16.20
2022-10-22T16:34:32.719Z,16.00
2022-10-22T16:37:01.891Z,16.00
2022-10-22T16:39:28.483Z,15.90
2022-10-22T16:41:55.120Z,15.90
2022-10-22T16:51:28.735Z,15.60
2022-10-22T16:53:57.068Z,15.70
2022-10-22T16:56:24.870Z,15.10
2022-10-22T16:58:53.524Z,15.40
2022-10-22T17:01:23.606Z,15.40
2022-10-22T17:03:50.283Z,15.30
2022-10-22T17:06:17.835Z,15.30
2022-10-22T17:08:45.127Z,15.30
2022-10-22T17:11:13.467Z,15.20
2022-10-22T17:13:40.800Z,15.20
2022-10-22T17:16:10.369Z,15.20
2022-10-22T17:18:38.629Z,15.00
2022-10-22T17:21:05.837Z,15.10
2022-10-22T17:23:32.509Z,15.00
2022-10-22T17:26:01.774Z,15.10
2022-10-22T17:28:29.831Z,15.00
2022-10-22T17:31:04.768Z,15.00
2022-10-22T17:33:31.990Z,15.10
2022-10-22T17:35:59.412Z,14.80
2022-10-22T17:38:26.740Z,15.00
2022-10-22T17:40:53.431Z,14.90
2022-10-22T17:43:20.686Z,14.90
2022-10-22T17:45:47.490Z,14.90
2022-10-22T17:48:14.147Z,14.80
2022-10-22T17:50:41.192Z,14.70
2022-10-22T17:53:08.359Z,14.80
2022-10-22T17:55:34.944Z,14.80
2022-10-22T17:58:01.824Z,14.80
2022-10-22T18:00:31.538Z,14.80
2022-10-22T18:02:59.439Z,14.80
2022-10-22T18:05:26.252Z,14.60
2022-10-22T18:07:55.121Z,14.80
2022-10-22T18:10:22.412Z,14.80
2022-10-22T18:12:49.020Z,15.00
2022-10-22T18:15:15.975Z,15.00
2022-10-22T18:17:49.460Z,15.00
2022-10-22T18:20:16.345Z,15.10
2022-10-22T18:22:44.646Z,15.20
2022-10-22T18:25:11.912Z,15.30
2022-10-22T18:27:39.439Z,15.50
2022-10-22T18:30:07.485Z,15.50
2022-10-22T18:32:34.448Z,15.60
2022-10-22T18:35:01.745Z,15.60
2022-10-22T18:37:28.941Z,15.10
2022-10-22T18:39:55.568Z,15.70
2022-10-22T18:42:22.347Z,15.70
2022-10-22T18:44:50.823Z,15.70
2022-10-22T18:47:17.539Z,15.70
2022-10-22T18:49:44.133Z,15.70
2022-10-22T18:52:11.768Z,15.60
2022-10-22T18:54:38.509Z,15.70
2022-10-22T18:57:05.122Z,15.70
2022-10-22T18:59:31.891Z,15.70
2022-10-22T19:01:58.853Z,15.50
2022-10-22T19:04:30.175Z,15.70
2022-10-22T19:06:56.907Z,15.60
2022-10-22T19:09:25.251Z,15.50
2022-10-22T19:11:51.861Z,15.50
2022-10-22T19:14:19.799Z,15.40
2022-10-22T19:16:46.612Z,15.40
2022-10-22T19:19:16.082Z,15.30
2022-10-22T19:21:42.755Z,15.50
2022-10-22T19:24:11.072Z,15.10
2022-10-22T19:26:39.177Z,15.10
2022-10-22T19:29:05.772Z,15.10
2022-10-22T19:31:32.773Z,15.00
2022-10-22T19:34:01.127Z,15.00
2022-10-22T19:36:29.448Z,15.00
2022-10-22T19:38:56.925Z,15.00
2022-10-22T19:41:25.368Z,15.00
2022-10-22T19:43:54.208Z,14.80
2022-10-22T19:46:22.183Z,15.10
2022-10-22T19:48:50.521Z,15.10
2022-10-22T19:51:19.557Z,15.10
2022-10-22T19:53:46.490Z,15.10
2022-10-22T19:56:17.506Z,15.40
2022-10-22T19:58:45.030Z,15.00
2022-10-22T20:01:14.499Z,15.10
2022-10-22T20:03:41.622Z,15.00
2022-10-22T20:06:10.301Z,15.10
2022-10-22T20:08:38.192Z,15.10
2022-10-22T20:11:06.823Z,15.20
2022-10-22T20:13:34.052Z,15.00
2022-10-22T20:16:00.813Z,14.90
2022-10-22T20:18:28.354Z,15.00
2022-10-22T20:20:54.980Z,15.00
2022-10-22T20:23:21.838Z,15.20
2022-10-22T20:25:48.544Z,15.00
2022-10-22T20:28:17.041Z,14.70
2022-10-22T20:30:44.268Z,15.00
2022-10-22T20:33:11.469Z,15.00
2022-10-22T20:35:39.224Z,15.10
2022-10-22T20:38:07.015Z,15.00
2022-10-22T20:40:33.817Z,15.00
2022-10-22T20:43:01.350Z,15.10
2022-10-22T20:45:28.800Z,15.10
2022-10-22T20:48:02.124Z,15.10
2022-10-22T20:50:30.670Z,15.10
2022-10-22T20:52:58.066Z,15.10
2022-10-22T20:55:24.874Z,15.10
2022-10-22T20:57:51.637Z,15.10
2022-10-22T21:00:18.396Z,15.10
2022-10-22T21:02:45.042Z,14.90
2022-10-22T21:05:11.666Z,15.20
2022-10-22T21:07:38.208Z,15.20
2022-10-22T21:10:06.453Z,15.30
2022-10-22T21:12:33.093Z,15.30
2022-10-22T21:14:59.776Z,15.30
2022-10-22T21:17:26.386Z,15.30
2022-10-22T21:19:53.029Z,15.40
2022-10-22T21:22:19.739Z,15.60
2022-10-22T21:24:46.370Z,15.50
2022-10-22T21:27:13.773Z,15.30
2022-10-22T21:29:40.371Z,15.40
2022-10-22T21:32:06.979Z,15.50
2022-10-22T21:34:38.137Z,15.30
2022-10-22T21:37:05.946Z,15.20
2022-10-22T21:39:32.625Z,15.70
2022-10-22T21:41:59.285Z,15.50
2022-10-22T21:44:26.701Z,15.60
2022-10-22T21:46:53.446Z,15.50
2022-10-22T21:49:20.097Z,15.40
2022-10-22T21:51:46.910Z,15.80
2022-10-22T21:54:13.558Z,15.50
2022-10-22T21:56:40.732Z,15.50
2022-10-22T21:59:07.965Z,15.50
2022-10-22T22:01:35.425Z,15.70
2022-10-22T22:04:02.902Z,15.50
2022-10-22T22:06:33.167Z,15.20
2022-10-22T22:09:00.920Z,15.60
2022-10-22T22:11:28.470Z,15.40
2022-10-22T22:13:56.509Z,15.40
2022-10-22T22:16:28.263Z,15.30
2022-10-22T22:18:57.824Z,15.60
2022-10-22T22:21:24.695Z,15.60
2022-10-22T22:23:51.361Z,15.20
2022-10-22T22:26:24.047Z,15.10
2022-10-22T22:28:53.564Z,15.20
2022-10-22T22:31:24.398Z,15.50
2022-10-22T22:33:51.226Z,15.20
2022-10-22T22:36:18.506Z,15.30
2022-10-22T22:38:45.130Z,15.10
2022-10-22T22:41:11.719Z,15.30
2022-10-22T22:43:38.388Z,14.90
2022-10-22T22:46:07.003Z,15.00
2022-10-22T22:48:34.287Z,15.00
2022-10-22T22:51:02.312Z,15.00
2022-10-22T22:53:29.694Z,14.80
2022-10-22T22:56:07.166Z,14.80
2022-10-22T22:58:33.887Z,14.70
2022-10-22T23:01:16.545Z,14.90
2022-10-22T23:03:44.176Z,14.70
2022-10-22T23:06:11.701Z,14.60
2022-10-22T23:08:39.581Z,14.60
2022-10-22T23:11:08.446Z,14.60
2022-10-22T23:13:35.884Z,14.60
2022-10-22T23:16:06.053Z,14.50
2022-10-22T23:18:32.593Z,14.50
2022-10-22T23:21:02.360Z,14.50
2022-10-22T23:23:30.498Z,14.40
2022-10-22T23:28:25.319Z,14.30
2022-10-22T23:30:51.996Z,14.30
2022-10-22T23:33:18.930Z,14.40
2022-10-22T23:35:45.815Z,14.30
2022-10-22T23:38:12.657Z,14.30
2022-10-22T23:40:39.299Z,14.10
2022-10-22T23:43:06.479Z,14.20
2022-10-22T23:45:34.642Z,14.60
2022-10-22T23:48:01.270Z,14.20
2022-10-22T23:50:28.072Z,14.20
2022-10-22T23:52:54.631Z,13.70
2022-10-22T23:55:21.367Z,14.00
2022-10-22T23:57:47.987Z,14.00
